sensor_id;sensor_type;location;lat;lon;timestamp;P1;durP1;ratioP1;P2;durP2;ratioP2
80368;SDS011;69893;48.124;11.542;2023-05-07T05:02:46;4.32;;;2.70;;
80368;SDS011;69893;48.124;11.542;2023-05-07T05:05:12;5.32;;;2.90;;
80368;SDS011;69893;48.124;11.542;2023-05-07T05:07:38;5.53;;;2.97;;
80368;SDS011;69893;48.124;11.542;2023-05-07T05:10:04;4.53;;;3.35;;
80368;SDS011;69893;48.124;11.542;2023-05-07T05:12:31;5.15;;;2.60;;
80368;SDS011;69893;48.124;11.542;2023-05-07T05:14:57;5.50;;;2.85;;
80368;SDS011;69893;48.124;11.542;2023-05-07T05:17:22;4.13;;;2.67;;
80368;SDS011;69893;48.124;11.542;2023-05-07T05:19:48;4.82;;;2.97;;
80368;SDS011;69893;48.124;11.542;2023-05-07T05:22:14;6.60;;;2.60;;
80368;SDS011;69893;48.124;11.542;2023-05-07T05:24:40;3.53;;;2.75;;
80368;SDS011;69893;48.124;11.542;2023-05-07T05:27:06;4.25;;;2.90;;
80368;SDS011;69893;48.124;11.542;2023-05-07T05:29:32;6.88;;;2.85;;
80368;SDS011;69893;48.124;11.542;2023-05-07T05:31:58;4.35;;;2.40;;
80368;SDS011;69893;48.124;11.542;2023-05-07T05:34:24;3.85;;;2.58;;
80368;SDS011;69893;48.124;11.542;2023-05-07T05:36:50;4.32;;;2.80;;
80368;SDS011;69893;48.124;11.542;2023-05-07T05:39:16;4.13;;;2.35;;
80368;SDS011;69893;48.124;11.542;2023-05-07T05:41:42;5.50;;;2.28;;
80368;SDS011;69893;48.124;11.542;2023-05-07T05:44:08;3.78;;;2.53;;
80368;SDS011;69893;48.124;11.542;2023-05-07T05:46:34;6.95;;;2.15;;
80368;SDS011;69893;48.124;11.542;2023-05-07T05:49:00;3.67;;;2.13;;
80368;SDS011;69893;48.124;11.542;2023-05-07T05:51:26;4.38;;;2.50;;
80368;SDS011;69893;48.124;11.542;2023-05-07T05:53:52;3.17;;;2.00;;
80368;SDS011;69893;48.124;11.542;2023-05-07T05:56:18;4.07;;;2.17;;
80368;SDS011;69893;48.124;11.542;2023-05-07T05:58:44;3.03;;;2.22;;
80368;SDS011;69893;48.124;11.542;2023-05-07T06:01:10;3.60;;;2.10;;
80368;SDS011;69893;48.124;11.542;2023-05-07T06:03:37;3.25;;;2.17;;
80368;SDS011;69893;48.124;11.542;2023-05-07T06:06:03;4.07;;;2.55;;
80368;SDS011;69893;48.124;11.542;2023-05-07T06:08:29;3.53;;;2.22;;
80368;SDS011;69893;48.124;11.542;2023-05-07T06:10:55;4.18;;;2.20;;
80368;SDS011;69893;48.124;11.542;2023-05-07T06:13:21;4.00;;;2.10;;
80368;SDS011;69893;48.124;11.542;2023-05-07T06:15:48;5.00;;;2.70;;
80368;SDS011;69893;48.124;11.542;2023-05-07T06:18:14;5.85;;;2.35;;
80368;SDS011;69893;48.124;11.542;2023-05-07T06:20:40;4.43;;;2.55;;
80368;SDS011;69893;48.124;11.542;2023-05-07T06:23:06;5.15;;;2.50;;
80368;SDS011;69893;48.124;11.542;2023-05-07T06:25:32;6.47;;;2.50;;
80368;SDS011;69893;48.124;11.542;2023-05-07T06:27:58;4.80;;;2.78;;
80368;SDS011;69893;48.124;11.542;2023-05-07T06:30:24;3.38;;;2.20;;
80368;SDS011;69893;48.124;11.542;2023-05-07T06:32:50;5.43;;;2.45;;
80368;SDS011;69893;48.124;11.542;2023-05-07T06:35:16;3.72;;;2.55;;
80368;SDS011;69893;48.124;11.542;2023-05-07T06:37:42;3.42;;;2.42;;
80368;SDS011;69893;48.124;11.542;2023-05-07T06:40:08;4.32;;;2.47;;
80368;SDS011;69893;48.124;11.542;2023-05-07T06:42:35;4.60;;;1.98;;
80368;SDS011;69893;48.124;11.542;2023-05-07T06:45:01;3.35;;;2.20;;
80368;SDS011;69893;48.124;11.542;2023-05-07T06:47:27;4.72;;;2.20;;
80368;SDS011;69893;48.124;11.542;2023-05-07T06:49:53;3.17;;;2.10;;
80368;SDS011;69893;48.124;11.542;2023-05-07T06:52:19;3.05;;;1.88;;
80368;SDS011;69893;48.124;11.542;2023-05-07T06:54:45;3.28;;;1.67;;
80368;SDS011;69893;48.124;11.542;2023-05-07T06:57:11;2.78;;;1.88;;
80368;SDS011;69893;48.124;11.542;2023-05-07T06:59:37;3.47;;;1.88;;
80368;SDS011;69893;48.124;11.542;2023-05-07T07:02:03;3.20;;;2.05;;
80368;SDS011;69893;48.124;11.542;2023-05-07T07:04:29;4.93;;;2.50;;
80368;SDS011;69893;48.124;11.542;2023-05-07T07:06:55;4.45;;;2.40;;
80368;SDS011;69893;48.124;11.542;2023-05-07T07:09:21;4.45;;;2.28;;
80368;SDS011;69893;48.124;11.542;2023-05-07T07:11:47;4.43;;;2.30;;
80368;SDS011;69893;48.124;11.542;2023-05-07T07:14:13;4.40;;;1.95;;
80368;SDS011;69893;48.124;11.542;2023-05-07T07:16:39;3.33;;;2.00;;
80368;SDS011;69893;48.124;11.542;2023-05-07T07:19:05;2.75;;;2.03;;
80368;SDS011;69893;48.124;11.542;2023-05-07T07:21:32;2.63;;;1.73;;
80368;SDS011;69893;48.124;11.542;2023-05-07T07:23:57;3.75;;;2.10;;
80368;SDS011;69893;48.124;11.542;2023-05-07T07:26:23;4.05;;;2.03;;
80368;SDS011;69893;48.124;11.542;2023-05-07T07:28:49;2.92;;;2.17;;
80368;SDS011;69893;48.124;11.542;2023-05-07T07:31:15;3.38;;;2.10;;
80368;SDS011;69893;48.124;11.542;2023-05-07T07:33:41;5.07;;;2.03;;
80368;SDS011;69893;48.124;11.542;2023-05-07T07:36:07;3.05;;;1.85;;
80368;SDS011;69893;48.124;11.542;2023-05-07T07:38:33;3.33;;;2.00;;
80368;SDS011;69893;48.124;11.542;2023-05-07T07:41:00;5.18;;;2.50;;
80368;SDS011;69893;48.124;11.542;2023-05-07T07:43:26;3.95;;;2.30;;
80368;SDS011;69893;48.124;11.542;2023-05-07T07:45:52;3.38;;;2.00;;
80368;SDS011;69893;48.124;11.542;2023-05-07T07:48:19;4.13;;;2.40;;
80368;SDS011;69893;48.124;11.542;2023-05-07T07:50:44;3.72;;;1.75;;
80368;SDS011;69893;48.124;11.542;2023-05-07T07:53:10;5.00;;;1.70;;
80368;SDS011;69893;48.124;11.542;2023-05-07T07:55:39;3.20;;;2.15;;
80368;SDS011;69893;48.124;11.542;2023-05-07T07:58:05;3.53;;;1.90;;
80368;SDS011;69893;48.124;11.542;2023-05-07T08:00:31;2.92;;;2.00;;
80368;SDS011;69893;48.124;11.542;2023-05-07T08:02:57;2.67;;;1.48;;
80368;SDS011;69893;48.124;11.542;2023-05-07T08:05:24;3.58;;;1.98;;
80368;SDS011;69893;48.124;11.542;2023-05-07T08:07:50;4.38;;;1.90;;
80368;SDS011;69893;48.124;11.542;2023-05-07T08:10:17;4.80;;;1.90;;
80368;SDS011;69893;48.124;11.542;2023-05-07T08:12:49;2.92;;;1.83;;
80368;SDS011;69893;48.124;11.542;2023-05-07T08:15:15;2.53;;;1.83;;
80368;SDS011;69893;48.124;11.542;2023-05-07T08:17:42;4.03;;;2.00;;
80368;SDS011;69893;48.124;11.542;2023-05-07T08:20:08;3.65;;;2.50;;
80368;SDS011;69893;48.124;11.542;2023-05-07T08:22:34;3.92;;;1.92;;
80368;SDS011;69893;48.124;11.542;2023-05-07T08:25:00;4.05;;;2.13;;
80368;SDS011;69893;48.124;11.542;2023-05-07T08:27:26;3.03;;;2.25;;
80368;SDS011;69893;48.124;11.542;2023-05-07T08:29:53;3.17;;;1.90;;
80368;SDS011;69893;48.124;11.542;2023-05-07T08:32:19;2.85;;;1.83;;
80368;SDS011;69893;48.124;11.542;2023-05-07T08:34:45;3.22;;;2.20;;
80368;SDS011;69893;48.124;11.542;2023-05-07T08:37:11;4.07;;;2.25;;
80368;SDS011;69893;48.124;11.542;2023-05-07T08:39:37;4.78;;;2.17;;
80368;SDS011;69893;48.124;11.542;2023-05-07T08:42:03;4.55;;;2.08;;
80368;SDS011;69893;48.124;11.542;2023-05-07T08:44:32;4.93;;;1.85;;
80368;SDS011;69893;48.124;11.542;2023-05-07T08:46:58;6.07;;;1.70;;
80368;SDS011;69893;48.124;11.542;2023-05-07T08:49:26;5.32;;;2.30;;
80368;SDS011;69893;48.124;11.542;2023-05-07T08:51:52;4.60;;;2.10;;
80368;SDS011;69893;48.124;11.542;2023-05-07T08:54:18;3.67;;;1.92;;
80368;SDS011;69893;48.124;11.542;2023-05-07T08:56:46;2.83;;;1.60;;
80368;SDS011;69893;48.124;11.542;2023-05-07T08:59:12;5.18;;;1.58;;
80368;SDS011;69893;48.124;11.542;2023-05-07T09:01:38;3.20;;;1.83;;
80368;SDS011;69893;48.124;11.542;2023-05-07T09:04:04;3.60;;;2.20;;
80368;SDS011;69893;48.124;11.542;2023-05-07T09:06:30;3.00;;;1.80;;
80368;SDS011;69893;48.124;11.542;2023-05-07T09:08:56;3.00;;;1.60;;
80368;SDS011;69893;48.124;11.542;2023-05-07T09:11:23;3.40;;;1.52;;
80368;SDS011;69893;48.124;11.542;2023-05-07T09:13:53;2.72;;;1.67;;
80368;SDS011;69893;48.124;11.542;2023-05-07T09:16:21;3.38;;;1.60;;
80368;SDS011;69893;48.124;11.542;2023-05-07T09:18:48;3.53;;;1.50;;
80368;SDS011;69893;48.124;11.542;2023-05-07T09:21:17;3.28;;;1.50;;
80368;SDS011;69893;48.124;11.542;2023-05-07T09:23:43;3.03;;;1.23;;
80368;SDS011;69893;48.124;11.542;2023-05-07T09:26:09;2.45;;;1.58;;
80368;SDS011;69893;48.124;11.542;2023-05-07T09:28:40;2.20;;;1.40;;
80368;SDS011;69893;48.124;11.542;2023-05-07T09:31:06;2.65;;;2.00;;
80368;SDS011;69893;48.124;11.542;2023-05-07T09:33:32;3.08;;;1.98;;
80368;SDS011;69893;48.124;11.542;2023-05-07T09:36:01;3.33;;;1.90;;
80368;SDS011;69893;48.124;11.542;2023-05-07T09:38:27;3.05;;;1.67;;
80368;SDS011;69893;48.124;11.542;2023-05-07T09:41:03;2.95;;;1.45;;
80368;SDS011;69893;48.124;11.542;2023-05-07T09:43:33;2.22;;;1.40;;
80368;SDS011;69893;48.124;11.542;2023-05-07T09:46:02;2.38;;;1.00;;
80368;SDS011;69893;48.124;11.542;2023-05-07T09:48:29;2.78;;;1.42;;
80368;SDS011;69893;48.124;11.542;2023-05-07T09:50:55;3.38;;;1.20;;
80368;SDS011;69893;48.124;11.542;2023-05-07T09:53:25;1.92;;;1.10;;
80368;SDS011;69893;48.124;11.542;2023-05-07T09:55:51;2.45;;;1.30;;
80368;SDS011;69893;48.124;11.542;2023-05-07T09:58:18;2.50;;;1.33;;
80368;SDS011;69893;48.124;11.542;2023-05-07T10:00:44;2.33;;;1.63;;
80368;SDS011;69893;48.124;11.542;2023-05-07T10:03:11;3.13;;;1.50;;
80368;SDS011;69893;48.124;11.542;2023-05-07T10:05:37;3.08;;;1.38;;
80368;SDS011;69893;48.124;11.542;2023-05-07T10:08:04;3.10;;;1.40;;
80368;SDS011;69893;48.124;11.542;2023-05-07T10:10:30;2.97;;;1.40;;
80368;SDS011;69893;48.124;11.542;2023-05-07T10:12:56;2.35;;;1.20;;
80368;SDS011;69893;48.124;11.542;2023-05-07T10:15:22;2.45;;;1.67;;
80368;SDS011;69893;48.124;11.542;2023-05-07T10:17:49;3.67;;;1.85;;
80368;SDS011;69893;48.124;11.542;2023-05-07T10:20:17;4.97;;;1.48;;
80368;SDS011;69893;48.124;11.542;2023-05-07T10:22:43;3.38;;;1.88;;
80368;SDS011;69893;48.124;11.542;2023-05-07T10:25:16;4.15;;;1.80;;
80368;SDS011;69893;48.124;11.542;2023-05-07T10:27:43;3.35;;;1.25;;
80368;SDS011;69893;48.124;11.542;2023-05-07T10:32:56;3.55;;;1.27;;
80368;SDS011;69893;48.124;11.542;2023-05-07T10:35:30;2.65;;;1.63;;
80368;SDS011;69893;48.124;11.542;2023-05-07T10:37:57;3.33;;;1.60;;
80368;SDS011;69893;48.124;11.542;2023-05-07T10:40:23;3.83;;;1.58;;
80368;SDS011;69893;48.124;11.542;2023-05-07T10:42:53;2.60;;;1.20;;
80368;SDS011;69893;48.124;11.542;2023-05-07T10:45:19;2.85;;;1.50;;
80368;SDS011;69893;48.124;11.542;2023-05-07T10:48:05;1.80;;;1.30;;
80368;SDS011;69893;48.124;11.542;2023-05-07T10:50:31;3.20;;;1.20;;
80368;SDS011;69893;48.124;11.542;2023-05-07T10:55:42;2.70;;;1.42;;
80368;SDS011;69893;48.124;11.542;2023-05-07T10:58:27;3.95;;;1.55;;
80368;SDS011;69893;48.124;11.542;2023-05-07T11:01:00;1.90;;;1.38;;
80368;SDS011;69893;48.124;11.542;2023-05-07T11:03:26;2.97;;;1.77;;
80368;SDS011;69893;48.124;11.542;2023-05-07T11:11:19;2.65;;;1.92;;
80368;SDS011;69893;48.124;11.542;2023-05-07T11:16:44;2.40;;;1.50;;
80368;SDS011;69893;48.124;11.542;2023-05-07T11:19:06;2.92;;;1.52;;
80368;SDS011;69893;48.124;11.542;2023-05-07T11:21:33;3.67;;;1.58;;
80368;SDS011;69893;48.124;11.542;2023-05-07T11:24:00;3.47;;;1.42;;
80368;SDS011;69893;48.124;11.542;2023-05-07T11:26:26;2.58;;;1.52;;
80368;SDS011;69893;48.124;11.542;2023-05-07T11:28:53;2.17;;;1.30;;
80368;SDS011;69893;48.124;11.542;2023-05-07T11:31:20;2.10;;;1.50;;
80368;SDS011;69893;48.124;11.542;2023-05-07T11:33:47;2.20;;;1.70;;
80368;SDS011;69893;48.124;11.542;2023-05-07T11:36:13;2.88;;;1.88;;
80368;SDS011;69893;48.124;11.542;2023-05-07T11:38:39;3.63;;;2.20;;
80368;SDS011;69893;48.124;11.542;2023-05-07T11:41:05;2.67;;;1.95;;
80368;SDS011;69893;48.124;11.542;2023-05-07T11:43:31;2.50;;;1.70;;
80368;SDS011;69893;48.124;11.542;2023-05-07T11:46:10;4.28;;;2.30;;
80368;SDS011;69893;48.124;11.542;2023-05-07T11:48:36;3.97;;;2.30;;
80368;SDS011;69893;48.124;11.542;2023-05-07T11:51:06;3.92;;;2.38;;
80368;SDS011;69893;48.124;11.542;2023-05-07T11:53:38;2.55;;;1.70;;
80368;SDS011;69893;48.124;11.542;2023-05-07T11:56:11;2.30;;;1.70;;
80368;SDS011;69893;48.124;11.542;2023-05-07T11:58:38;4.00;;;1.60;;
80368;SDS011;69893;48.124;11.542;2023-05-07T12:01:06;3.65;;;1.83;;
80368;SDS011;69893;48.124;11.542;2023-05-07T12:03:32;3.42;;;2.40;;
80368;SDS011;69893;48.124;11.542;2023-05-07T12:05:59;2.95;;;2.42;;
80368;SDS011;69893;48.124;11.542;2023-05-07T12:08:25;2.80;;;2.42;;
80368;SDS011;69893;48.124;11.542;2023-05-07T12:10:51;2.50;;;2.10;;
80368;SDS011;69893;48.124;11.542;2023-05-07T12:13:18;3.65;;;2.30;;
80368;SDS011;69893;48.124;11.542;2023-05-07T12:15:44;3.47;;;2.30;;
80368;SDS011;69893;48.124;11.542;2023-05-07T12:18:10;3.25;;;2.50;;
80368;SDS011;69893;48.124;11.542;2023-05-07T12:20:36;3.35;;;2.20;;
80368;SDS011;69893;48.124;11.542;2023-05-07T12:23:03;2.88;;;1.92;;
80368;SDS011;69893;48.124;11.542;2023-05-07T12:25:30;3.50;;;2.17;;
80368;SDS011;69893;48.124;11.542;2023-05-07T12:27:56;2.40;;;1.60;;
80368;SDS011;69893;48.124;11.542;2023-05-07T12:30:24;3.35;;;2.58;;
80368;SDS011;69893;48.124;11.542;2023-05-07T12:32:52;3.50;;;2.17;;
80368;SDS011;69893;48.124;11.542;2023-05-07T12:35:25;4.15;;;2.30;;
80368;SDS011;69893;48.124;11.542;2023-05-07T12:38:10;3.00;;;2.35;;
80368;SDS011;69893;48.124;11.542;2023-05-07T12:40:38;3.25;;;2.15;;
80368;SDS011;69893;48.124;11.542;2023-05-07T12:43:04;3.10;;;2.00;;
80368;SDS011;69893;48.124;11.542;2023-05-07T12:45:30;5.10;;;2.40;;
80368;SDS011;69893;48.124;11.542;2023-05-07T12:47:56;3.08;;;1.80;;
80368;SDS011;69893;48.124;11.542;2023-05-07T12:50:22;2.85;;;1.63;;
80368;SDS011;69893;48.124;11.542;2023-05-07T12:52:48;5.43;;;2.10;;
80368;SDS011;69893;48.124;11.542;2023-05-07T12:55:15;5.57;;;2.33;;
80368;SDS011;69893;48.124;11.542;2023-05-07T12:57:42;2.30;;;1.70;;
80368;SDS011;69893;48.124;11.542;2023-05-07T13:00:08;2.33;;;1.38;;
80368;SDS011;69893;48.124;11.542;2023-05-07T13:02:38;3.83;;;2.38;;
80368;SDS011;69893;48.124;11.542;2023-05-07T13:05:04;2.83;;;2.15;;
80368;SDS011;69893;48.124;11.542;2023-05-07T13:07:30;2.65;;;1.70;;
80368;SDS011;69893;48.124;11.542;2023-05-07T13:09:56;3.83;;;1.65;;
80368;SDS011;69893;48.124;11.542;2023-05-07T13:12:22;2.78;;;1.77;;
80368;SDS011;69893;48.124;11.542;2023-05-07T13:14:48;2.72;;;1.55;;
80368;SDS011;69893;48.124;11.542;2023-05-07T13:17:14;2.22;;;1.55;;
80368;SDS011;69893;48.124;11.542;2023-05-07T13:19:39;2.70;;;2.10;;
80368;SDS011;69893;48.124;11.542;2023-05-07T13:22:05;2.88;;;1.92;;
80368;SDS011;69893;48.124;11.542;2023-05-07T13:24:31;4.57;;;2.08;;
80368;SDS011;69893;48.124;11.542;2023-05-07T13:26:57;2.25;;;1.55;;
80368;SDS011;69893;48.124;11.542;2023-05-07T13:29:23;2.30;;;1.50;;
80368;SDS011;69893;48.124;11.542;2023-05-07T13:31:54;2.17;;;1.58;;
80368;SDS011;69893;48.124;11.542;2023-05-07T13:34:20;3.22;;;1.50;;
80368;SDS011;69893;48.124;11.542;2023-05-07T13:36:46;3.00;;;1.75;;
80368;SDS011;69893;48.124;11.542;2023-05-07T13:39:12;3.38;;;1.88;;
80368;SDS011;69893;48.124;11.542;2023-05-07T13:41:38;2.28;;;1.50;;
80368;SDS011;69893;48.124;11.542;2023-05-07T13:44:04;2.17;;;1.98;;
80368;SDS011;69893;48.124;11.542;2023-05-07T13:46:30;2.25;;;1.65;;
80368;SDS011;69893;48.124;11.542;2023-05-07T13:48:56;2.97;;;1.52;;
80368;SDS011;69893;48.124;11.542;2023-05-07T13:51:22;3.13;;;1.95;;
80368;SDS011;69893;48.124;11.542;2023-05-07T13:53:48;2.75;;;2.00;;
80368;SDS011;69893;48.124;11.542;2023-05-07T13:56:15;3.13;;;1.92;;
80368;SDS011;69893;48.124;11.542;2023-05-07T13:58:41;3.22;;;2.17;;
80368;SDS011;69893;48.124;11.542;2023-05-07T14:01:07;2.53;;;1.85;;
80368;SDS011;69893;48.124;11.542;2023-05-07T14:03:33;2.00;;;1.80;;
80368;SDS011;69893;48.124;11.542;2023-05-07T14:05:59;2.50;;;1.90;;
80368;SDS011;69893;48.124;11.542;2023-05-07T14:08:26;3.05;;;1.92;;
80368;SDS011;69893;48.124;11.542;2023-05-07T14:10:52;2.60;;;1.83;;
80368;SDS011;69893;48.124;11.542;2023-05-07T14:13:18;3.08;;;2.30;;
80368;SDS011;69893;48.124;11.542;2023-05-07T14:15:44;3.45;;;1.42;;
80368;SDS011;69893;48.124;11.542;2023-05-07T14:18:12;2.72;;;1.90;;
80368;SDS011;69893;48.124;11.542;2023-05-07T14:20:38;2.75;;;1.40;;
80368;SDS011;69893;48.124;11.542;2023-05-07T14:23:04;2.67;;;1.63;;
80368;SDS011;69893;48.124;11.542;2023-05-07T14:25:30;2.28;;;1.77;;
80368;SDS011;69893;48.124;11.542;2023-05-07T14:27:56;2.83;;;1.60;;
80368;SDS011;69893;48.124;11.542;2023-05-07T14:30:22;2.10;;;1.30;;
80368;SDS011;69893;48.124;11.542;2023-05-07T14:32:49;2.25;;;1.60;;
80368;SDS011;69893;48.124;11.542;2023-05-07T14:35:15;2.20;;;1.30;;
80368;SDS011;69893;48.124;11.542;2023-05-07T14:37:42;2.85;;;1.85;;
80368;SDS011;69893;48.124;11.542;2023-05-07T14:40:08;3.17;;;1.40;;
80368;SDS011;69893;48.124;11.542;2023-05-07T14:42:34;2.70;;;1.90;;
80368;SDS011;69893;48.124;11.542;2023-05-07T14:45:00;3.83;;;2.00;;
80368;SDS011;69893;48.124;11.542;2023-05-07T14:47:26;2.55;;;1.83;;
80368;SDS011;69893;48.124;11.542;2023-05-07T14:49:52;5.07;;;3.10;;
80368;SDS011;69893;48.124;11.542;2023-05-07T14:52:18;3.97;;;1.67;;
80368;SDS011;69893;48.124;11.542;2023-05-07T14:54:44;3.88;;;2.30;;
80368;SDS011;69893;48.124;11.542;2023-05-07T14:57:10;3.35;;;2.22;;
80368;SDS011;69893;48.124;11.542;2023-05-07T14:59:41;5.65;;;2.00;;
80368;SDS011;69893;48.124;11.542;2023-05-07T15:02:07;2.58;;;1.92;;
80368;SDS011;69893;48.124;11.542;2023-05-07T15:04:33;3.25;;;1.83;;
80368;SDS011;69893;48.124;11.542;2023-05-07T15:06:59;3.88;;;1.98;;
80368;SDS011;69893;48.124;11.542;2023-05-07T15:09:25;3.08;;;2.28;;
80368;SDS011;69893;48.124;11.542;2023-05-07T15:11:51;4.82;;;1.83;;
80368;SDS011;69893;48.124;11.542;2023-05-07T15:14:17;3.95;;;1.73;;
80368;SDS011;69893;48.124;11.542;2023-05-07T15:16:43;2.90;;;1.85;;
80368;SDS011;69893;48.124;11.542;2023-05-07T15:19:10;3.08;;;2.03;;
80368;SDS011;69893;48.124;11.542;2023-05-07T15:21:36;3.70;;;2.05;;
80368;SDS011;69893;48.124;11.542;2023-05-07T15:24:02;2.60;;;1.80;;
80368;SDS011;69893;48.124;11.542;2023-05-07T15:26:28;2.72;;;1.73;;
80368;SDS011;69893;48.124;11.542;2023-05-07T15:28:54;3.78;;;1.95;;
80368;SDS011;69893;48.124;11.542;2023-05-07T15:31:22;6.88;;;2.20;;
80368;SDS011;69893;48.124;11.542;2023-05-07T15:33:48;2.50;;;1.65;;
80368;SDS011;69893;48.124;11.542;2023-05-07T15:36:16;3.10;;;2.00;;
80368;SDS011;69893;48.124;11.542;2023-05-07T15:38:42;3.03;;;2.42;;
80368;SDS011;69893;48.124;11.542;2023-05-07T15:41:08;3.22;;;2.20;;
80368;SDS011;69893;48.124;11.542;2023-05-07T15:43:38;2.80;;;1.75;;
80368;SDS011;69893;48.124;11.542;2023-05-07T15:46:08;3.03;;;1.60;;
80368;SDS011;69893;48.124;11.542;2023-05-07T15:48:35;3.75;;;1.90;;
80368;SDS011;69893;48.124;11.542;2023-05-07T15:51:01;3.05;;;1.90;;
80368;SDS011;69893;48.124;11.542;2023-05-07T15:53:27;4.03;;;1.63;;
80368;SDS011;69893;48.124;11.542;2023-05-07T15:55:53;4.25;;;2.03;;
80368;SDS011;69893;48.124;11.542;2023-05-07T15:58:19;2.63;;;1.58;;
80368;SDS011;69893;48.124;11.542;2023-05-07T16:00:45;3.47;;;1.70;;
80368;SDS011;69893;48.124;11.542;2023-05-07T16:03:11;2.55;;;1.50;;
80368;SDS011;69893;48.124;11.542;2023-05-07T16:05:37;3.20;;;1.55;;
80368;SDS011;69893;48.124;11.542;2023-05-07T16:08:03;2.53;;;1.65;;
80368;SDS011;69893;48.124;11.542;2023-05-07T16:10:29;3.45;;;1.70;;
80368;SDS011;69893;48.124;11.542;2023-05-07T16:12:55;3.13;;;1.77;;
80368;SDS011;69893;48.124;11.542;2023-05-07T16:15:22;4.60;;;1.50;;
80368;SDS011;69893;48.124;11.542;2023-05-07T16:17:48;2.10;;;1.30;;
80368;SDS011;69893;48.124;11.542;2023-05-07T16:20:15;2.05;;;1.38;;
80368;SDS011;69893;48.124;11.542;2023-05-07T16:22:44;2.30;;;1.40;;
80368;SDS011;69893;48.124;11.542;2023-05-07T16:25:10;2.20;;;1.20;;
80368;SDS011;69893;48.124;11.542;2023-05-07T16:27:38;2.40;;;1.23;;
80368;SDS011;69893;48.124;11.542;2023-05-07T16:30:04;2.63;;;1.38;;
80368;SDS011;69893;48.124;11.542;2023-05-07T16:32:30;3.72;;;1.20;;
80368;SDS011;69893;48.124;11.542;2023-05-07T16:34:56;4.32;;;1.98;;
80368;SDS011;69893;48.124;11.542;2023-05-07T16:37:22;2.33;;;1.40;;
80368;SDS011;69893;48.124;11.542;2023-05-07T16:39:48;2.35;;;1.67;;
80368;SDS011;69893;48.124;11.542;2023-05-07T16:42:14;2.85;;;1.60;;
80368;SDS011;69893;48.124;11.542;2023-05-07T16:44:40;3.22;;;1.40;;
80368;SDS011;69893;48.124;11.542;2023-05-07T16:47:06;1.98;;;1.30;;
80368;SDS011;69893;48.124;11.542;2023-05-07T16:49:32;2.33;;;1.27;;
80368;SDS011;69893;48.124;11.542;2023-05-07T16:51:58;2.25;;;1.25;;
80368;SDS011;69893;48.124;11.542;2023-05-07T16:54:24;2.15;;;1.20;;
80368;SDS011;69893;48.124;11.542;2023-05-07T16:56:50;2.50;;;0.95;;
80368;SDS011;69893;48.124;11.542;2023-05-07T16:59:15;2.47;;;1.33;;
80368;SDS011;69893;48.124;11.542;2023-05-07T17:01:41;3.28;;;1.60;;
80368;SDS011;69893;48.124;11.542;2023-05-07T17:04:07;2.33;;;1.30;;
80368;SDS011;69893;48.124;11.542;2023-05-07T17:06:33;2.28;;;1.38;;
80368;SDS011;69893;48.124;11.542;2023-05-07T17:09:00;3.08;;;1.50;;
80368;SDS011;69893;48.124;11.542;2023-05-07T17:11:26;2.53;;;1.30;;
80368;SDS011;69893;48.124;11.542;2023-05-07T17:13:55;2.90;;;1.10;;
80368;SDS011;69893;48.124;11.542;2023-05-07T17:16:20;2.25;;;1.10;;
80368;SDS011;69893;48.124;11.542;2023-05-07T17:18:46;2.72;;;1.50;;
80368;SDS011;69893;48.124;11.542;2023-05-07T17:21:12;3.13;;;1.20;;
80368;SDS011;69893;48.124;11.542;2023-05-07T17:23:38;2.28;;;1.13;;
80368;SDS011;69893;48.124;11.542;2023-05-07T17:26:10;3.63;;;1.48;;
80368;SDS011;69893;48.124;11.542;2023-05-07T17:28:36;1.90;;;1.05;;
80368;SDS011;69893;48.124;11.542;2023-05-07T17:31:02;2.20;;;1.45;;
80368;SDS011;69893;48.124;11.542;2023-05-07T17:33:28;2.35;;;1.63;;
80368;SDS011;69893;48.124;11.542;2023-05-07T17:35:54;3.22;;;1.60;;
80368;SDS011;69893;48.124;11.542;2023-05-07T17:38:20;3.78;;;1.60;;
80368;SDS011;69893;48.124;11.542;2023-05-07T17:40:46;2.78;;;1.55;;
80368;SDS011;69893;48.124;11.542;2023-05-07T17:43:12;2.97;;;1.30;;
80368;SDS011;69893;48.124;11.542;2023-05-07T17:45:38;3.88;;;1.75;;
80368;SDS011;69893;48.124;11.542;2023-05-07T17:48:04;1.92;;;1.13;;
80368;SDS011;69893;48.124;11.542;2023-05-07T17:50:30;3.55;;;2.10;;
80368;SDS011;69893;48.124;11.542;2023-05-07T17:52:56;3.88;;;2.30;;
80368;SDS011;69893;48.124;11.542;2023-05-07T17:55:22;3.03;;;1.50;;
80368;SDS011;69893;48.124;11.542;2023-05-07T17:57:48;3.47;;;1.52;;
80368;SDS011;69893;48.124;11.542;2023-05-07T18:00:14;2.40;;;1.45;;
80368;SDS011;69893;48.124;11.542;2023-05-07T18:02:40;3.78;;;1.25;;
80368;SDS011;69893;48.124;11.542;2023-05-07T18:05:07;3.85;;;1.50;;
80368;SDS011;69893;48.124;11.542;2023-05-07T18:07:33;6.38;;;1.38;;
80368;SDS011;69893;48.124;11.542;2023-05-07T18:10:00;2.42;;;1.20;;
80368;SDS011;69893;48.124;11.542;2023-05-07T18:12:26;2.22;;;0.98;;
80368;SDS011;69893;48.124;11.542;2023-05-07T18:14:52;3.10;;;1.60;;
80368;SDS011;69893;48.124;11.542;2023-05-07T18:17:18;2.80;;;1.42;;
80368;SDS011;69893;48.124;11.542;2023-05-07T18:19:47;2.65;;;1.25;;
80368;SDS011;69893;48.124;11.542;2023-05-07T18:22:13;2.88;;;1.48;;
80368;SDS011;69893;48.124;11.542;2023-05-07T18:24:39;2.20;;;1.30;;
80368;SDS011;69893;48.124;11.542;2023-05-07T18:27:05;3.15;;;1.65;;
80368;SDS011;69893;48.124;11.542;2023-05-07T18:29:31;3.72;;;1.23;;
80368;SDS011;69893;48.124;11.542;2023-05-07T18:31:57;3.70;;;1.30;;
80368;SDS011;69893;48.124;11.542;2023-05-07T18:34:23;2.25;;;1.25;;
80368;SDS011;69893;48.124;11.542;2023-05-07T18:36:49;4.75;;;1.85;;
80368;SDS011;69893;48.124;11.542;2023-05-07T18:39:15;3.97;;;1.40;;
80368;SDS011;69893;48.124;11.542;2023-05-07T18:41:41;3.80;;;2.10;;
80368;SDS011;69893;48.124;11.542;2023-05-07T18:44:09;5.65;;;2.35;;
80368;SDS011;69893;48.124;11.542;2023-05-07T18:46:35;8.00;;;3.10;;
80368;SDS011;69893;48.124;11.542;2023-05-07T18:49:00;5.07;;;2.45;;
80368;SDS011;69893;48.124;11.542;2023-05-07T18:51:26;2.85;;;1.52;;
80368;SDS011;69893;48.124;11.542;2023-05-07T18:53:52;5.68;;;2.72;;
80368;SDS011;69893;48.124;11.542;2023-05-07T18:56:18;3.38;;;1.33;;
80368;SDS011;69893;48.124;11.542;2023-05-07T18:58:45;2.38;;;1.52;;
